sensor_id;sensor_type;location;lat;lon;timestamp;P1;durP1;ratioP1;P2;durP2;ratioP2
28607;SDS011;15802;45.654;13.804;2023-02-01T00:01:55;50.90;;;25.48;;
28607;SDS011;15802;45.654;13.804;2023-02-01T00:04:21;54.72;;;26.58;;
28607;SDS011;15802;45.654;13.804;2023-02-01T00:06:47;53.30;;;25.08;;
28607;SDS011;15802;45.654;13.804;2023-02-01T00:09:13;51.35;;;23.70;;
28607;SDS011;15802;45.654;13.804;2023-02-01T00:11:39;38.65;;;15.57;;
28607;SDS011;15802;45.654;13.804;2023-02-01T00:14:05;33.70;;;13.50;;
28607;SDS011;15802;45.654;13.804;2023-02-01T00:16:33;35.40;;;16.02;;
28607;SDS011;15802;45.654;13.804;2023-02-01T00:19:00;34.78;;;17.13;;
28607;SDS011;15802;45.654;13.804;2023-02-01T00:21:28;35.95;;;16.35;;
28607;SDS011;15802;45.654;13.804;2023-02-01T00:23:55;38.42;;;17.45;;
28607;SDS011;15802;45.654;13.804;2023-02-01T00:26:25;30.30;;;13.68;;
28607;SDS011;15802;45.654;13.804;2023-02-01T00:28:57;30.02;;;13.02;;
28607;SDS011;15802;45.654;13.804;2023-02-01T00:31:23;33.08;;;14.50;;
28607;SDS011;15802;45.654;13.804;2023-02-01T00:33:49;41.55;;;16.58;;
28607;SDS011;15802;45.654;13.804;2023-02-01T00:36:15;37.25;;;17.23;;
28607;SDS011;15802;45.654;13.804;2023-02-01T00:38:42;33.42;;;15.20;;
28607;SDS011;15802;45.654;13.804;2023-02-01T00:41:12;37.35;;;15.98;;
28607;SDS011;15802;45.654;13.804;2023-02-01T00:43:40;32.78;;;15.88;;
28607;SDS011;15802;45.654;13.804;2023-02-01T00:46:06;25.70;;;11.82;;
28607;SDS011;15802;45.654;13.804;2023-02-01T00:48:32;23.20;;;10.50;;
28607;SDS011;15802;45.654;13.804;2023-02-01T00:50:59;22.38;;;9.60;;
28607;SDS011;15802;45.654;13.804;2023-02-01T00:53:26;21.70;;;9.25;;
28607;SDS011;15802;45.654;13.804;2023-02-01T00:55:52;21.80;;;8.90;;
28607;SDS011;15802;45.654;13.804;2023-02-01T00:58:17;24.48;;;10.35;;
28607;SDS011;15802;45.654;13.804;2023-02-01T01:00:43;25.42;;;11.18;;
28607;SDS011;15802;45.654;13.804;2023-02-01T01:03:09;27.80;;;12.02;;
28607;SDS011;15802;45.654;13.804;2023-02-01T01:05:44;30.75;;;11.48;;
28607;SDS011;15802;45.654;13.804;2023-02-01T01:08:11;28.13;;;10.93;;
28607;SDS011;15802;45.654;13.804;2023-02-01T01:10:37;24.63;;;10.90;;
28607;SDS011;15802;45.654;13.804;2023-02-01T01:13:03;22.05;;;10.63;;
28607;SDS011;15802;45.654;13.804;2023-02-01T01:15:29;23.98;;;10.60;;
28607;SDS011;15802;45.654;13.804;2023-02-01T01:17:55;23.05;;;9.50;;
28607;SDS011;15802;45.654;13.804;2023-02-01T01:20:21;25.95;;;10.85;;
28607;SDS011;15802;45.654;13.804;2023-02-01T01:22:47;23.98;;;10.43;;
28607;SDS011;15802;45.654;13.804;2023-02-01T01:25:13;25.80;;;11.20;;
28607;SDS011;15802;45.654;13.804;2023-02-01T01:27:40;27.10;;;11.55;;
28607;SDS011;15802;45.654;13.804;2023-02-01T01:30:06;25.58;;;11.25;;
28607;SDS011;15802;45.654;13.804;2023-02-01T01:32:32;24.58;;;9.60;;
28607;SDS011;15802;45.654;13.804;2023-02-01T01:34:58;19.35;;;9.25;;
28607;SDS011;15802;45.654;13.804;2023-02-01T01:37:24;21.88;;;8.73;;
28607;SDS011;15802;45.654;13.804;2023-02-01T01:39:50;26.92;;;10.02;;
28607;SDS011;15802;45.654;13.804;2023-02-01T01:42:16;22.48;;;9.55;;
28607;SDS011;15802;45.654;13.804;2023-02-01T01:47:31;24.35;;;9.65;;
28607;SDS011;15802;45.654;13.804;2023-02-01T01:50:02;23.80;;;10.95;;
28607;SDS011;15802;45.654;13.804;2023-02-01T01:52:32;23.58;;;9.10;;
28607;SDS011;15802;45.654;13.804;2023-02-01T01:54:58;21.48;;;9.63;;
28607;SDS011;15802;45.654;13.804;2023-02-01T01:57:27;22.20;;;9.25;;
28607;SDS011;15802;45.654;13.804;2023-02-01T02:00:00;20.55;;;8.65;;
28607;SDS011;15802;45.654;13.804;2023-02-01T02:02:32;20.17;;;8.02;;
28607;SDS011;15802;45.654;13.804;2023-02-01T02:05:01;24.63;;;9.18;;
28607;SDS011;15802;45.654;13.804;2023-02-01T02:07:30;19.95;;;8.32;;
28607;SDS011;15802;45.654;13.804;2023-02-01T02:09:59;20.50;;;7.57;;
28607;SDS011;15802;45.654;13.804;2023-02-01T02:12:27;21.85;;;8.15;;
28607;SDS011;15802;45.654;13.804;2023-02-01T02:14:53;20.42;;;7.95;;
28607;SDS011;15802;45.654;13.804;2023-02-01T02:17:24;20.75;;;8.20;;
28607;SDS011;15802;45.654;13.804;2023-02-01T02:20:37;15.77;;;7.40;;
28607;SDS011;15802;45.654;13.804;2023-02-01T02:23:37;18.42;;;7.45;;
28607;SDS011;15802;45.654;13.804;2023-02-01T02:26:23;19.83;;;7.80;;
28607;SDS011;15802;45.654;13.804;2023-02-01T02:38:01;20.13;;;7.55;;
28607;SDS011;15802;45.654;13.804;2023-02-01T02:43:35;19.92;;;7.32;;
28607;SDS011;15802;45.654;13.804;2023-02-01T02:46:33;19.13;;;7.70;;
28607;SDS011;15802;45.654;13.804;2023-02-01T02:49:27;23.83;;;7.97;;
28607;SDS011;15802;45.654;13.804;2023-02-01T02:52:09;21.63;;;8.32;;
28607;SDS011;15802;45.654;13.804;2023-02-01T02:54:58;22.73;;;8.15;;
28607;SDS011;15802;45.654;13.804;2023-02-01T02:57:28;21.23;;;7.72;;
28607;SDS011;15802;45.654;13.804;2023-02-01T03:00:17;20.58;;;7.93;;
28607;SDS011;15802;45.654;13.804;2023-02-01T03:03:04;21.67;;;7.95;;
28607;SDS011;15802;45.654;13.804;2023-02-01T03:05:49;23.67;;;8.43;;
28607;SDS011;15802;45.654;13.804;2023-02-01T03:08:17;18.15;;;7.20;;
28607;SDS011;15802;45.654;13.804;2023-02-01T03:11:02;24.42;;;8.98;;
28607;SDS011;15802;45.654;13.804;2023-02-01T03:13:36;22.50;;;8.57;;
28607;SDS011;15802;45.654;13.804;2023-02-01T03:16:13;19.70;;;8.23;;
28607;SDS011;15802;45.654;13.804;2023-02-01T03:19:02;22.33;;;7.75;;
28607;SDS011;15802;45.654;13.804;2023-02-01T03:21:38;20.88;;;7.63;;
28607;SDS011;15802;45.654;13.804;2023-02-01T03:24:13;22.50;;;8.70;;
28607;SDS011;15802;45.654;13.804;2023-02-01T03:27:05;25.88;;;8.38;;
28607;SDS011;15802;45.654;13.804;2023-02-01T03:29:44;22.17;;;7.72;;
28607;SDS011;15802;45.654;13.804;2023-02-01T03:32:15;22.65;;;8.38;;
28607;SDS011;15802;45.654;13.804;2023-02-01T03:34:41;25.95;;;8.57;;
28607;SDS011;15802;45.654;13.804;2023-02-01T03:37:09;21.10;;;8.65;;
28607;SDS011;15802;45.654;13.804;2023-02-01T03:39:44;19.23;;;8.30;;
28607;SDS011;15802;45.654;13.804;2023-02-01T03:42:19;22.88;;;8.98;;
28607;SDS011;15802;45.654;13.804;2023-02-01T03:45:01;22.60;;;8.55;;
28607;SDS011;15802;45.654;13.804;2023-02-01T03:47:35;22.05;;;9.10;;
28607;SDS011;15802;45.654;13.804;2023-02-01T03:50:06;24.15;;;9.57;;
28607;SDS011;15802;45.654;13.804;2023-02-01T03:52:42;25.85;;;10.38;;
28607;SDS011;15802;45.654;13.804;2023-02-01T03:55:13;29.10;;;10.85;;
28607;SDS011;15802;45.654;13.804;2023-02-01T03:57:46;28.30;;;11.40;;
28607;SDS011;15802;45.654;13.804;2023-02-01T04:00:21;27.10;;;10.45;;
28607;SDS011;15802;45.654;13.804;2023-02-01T04:02:49;26.42;;;10.52;;
28607;SDS011;15802;45.654;13.804;2023-02-01T04:05:16;27.08;;;10.65;;
28607;SDS011;15802;45.654;13.804;2023-02-01T04:07:42;26.23;;;10.45;;
28607;SDS011;15802;45.654;13.804;2023-02-01T04:10:08;28.42;;;11.27;;
28607;SDS011;15802;45.654;13.804;2023-02-01T04:12:35;23.88;;;11.15;;
28607;SDS011;15802;45.654;13.804;2023-02-01T04:15:01;32.25;;;13.32;;
28607;SDS011;15802;45.654;13.804;2023-02-01T04:17:26;26.30;;;13.75;;
28607;SDS011;15802;45.654;13.804;2023-02-01T04:19:52;30.35;;;13.27;;
28607;SDS011;15802;45.654;13.804;2023-02-01T04:22:18;34.15;;;14.20;;
28607;SDS011;15802;45.654;13.804;2023-02-01T04:24:44;34.15;;;15.20;;
28607;SDS011;15802;45.654;13.804;2023-02-01T04:27:10;33.50;;;13.90;;
28607;SDS011;15802;45.654;13.804;2023-02-01T04:29:36;30.50;;;14.85;;
28607;SDS011;15802;45.654;13.804;2023-02-01T04:32:01;29.08;;;13.90;;
28607;SDS011;15802;45.654;13.804;2023-02-01T04:34:28;36.97;;;15.60;;
28607;SDS011;15802;45.654;13.804;2023-02-01T04:36:54;33.92;;;15.82;;
28607;SDS011;15802;45.654;13.804;2023-02-01T04:39:19;35.03;;;15.45;;
28607;SDS011;15802;45.654;13.804;2023-02-01T04:41:45;31.92;;;14.40;;
28607;SDS011;15802;45.654;13.804;2023-02-01T04:44:13;34.25;;;14.57;;
28607;SDS011;15802;45.654;13.804;2023-02-01T04:46:41;35.88;;;16.15;;
28607;SDS011;15802;45.654;13.804;2023-02-01T04:49:08;35.25;;;15.52;;
28607;SDS011;15802;45.654;13.804;2023-02-01T04:51:34;35.08;;;16.80;;
28607;SDS011;15802;45.654;13.804;2023-02-01T04:54:00;30.45;;;15.40;;
28607;SDS011;15802;45.654;13.804;2023-02-01T04:56:26;35.97;;;16.65;;
28607;SDS011;15802;45.654;13.804;2023-02-01T04:58:52;35.92;;;15.88;;
28607;SDS011;15802;45.654;13.804;2023-02-01T05:01:18;34.90;;;16.75;;
28607;SDS011;15802;45.654;13.804;2023-02-01T05:03:44;34.17;;;16.90;;
28607;SDS011;15802;45.654;13.804;2023-02-01T05:06:10;38.72;;;18.10;;
28607;SDS011;15802;45.654;13.804;2023-02-01T05:08:36;41.47;;;17.73;;
28607;SDS011;15802;45.654;13.804;2023-02-01T05:11:02;37.78;;;18.38;;
28607;SDS011;15802;45.654;13.804;2023-02-01T05:13:28;39.10;;;18.88;;
28607;SDS011;15802;45.654;13.804;2023-02-01T05:16:12;39.88;;;19.85;;
28607;SDS011;15802;45.654;13.804;2023-02-01T05:18:39;38.72;;;19.23;;
28607;SDS011;15802;45.654;13.804;2023-02-01T05:21:04;38.40;;;18.42;;
28607;SDS011;15802;45.654;13.804;2023-02-01T05:23:30;35.50;;;18.13;;
28607;SDS011;15802;45.654;13.804;2023-02-01T05:25:58;39.45;;;20.08;;
28607;SDS011;15802;45.654;13.804;2023-02-01T05:28:25;38.80;;;19.45;;
28607;SDS011;15802;45.654;13.804;2023-02-01T05:30:51;40.55;;;21.45;;
28607;SDS011;15802;45.654;13.804;2023-02-01T05:33:17;39.20;;;20.52;;
28607;SDS011;15802;45.654;13.804;2023-02-01T05:35:43;43.05;;;21.58;;
28607;SDS011;15802;45.654;13.804;2023-02-01T05:38:08;42.28;;;21.15;;
28607;SDS011;15802;45.654;13.804;2023-02-01T05:40:34;41.05;;;21.15;;
28607;SDS011;15802;45.654;13.804;2023-02-01T05:43:00;45.20;;;22.40;;
28607;SDS011;15802;45.654;13.804;2023-02-01T05:45:26;44.28;;;22.83;;
28607;SDS011;15802;45.654;13.804;2023-02-01T05:47:52;50.03;;;23.52;;
28607;SDS011;15802;45.654;13.804;2023-02-01T05:50:18;49.25;;;23.92;;
28607;SDS011;15802;45.654;13.804;2023-02-01T05:52:44;50.00;;;25.52;;
28607;SDS011;15802;45.654;13.804;2023-02-01T05:55:09;43.17;;;22.65;;
28607;SDS011;15802;45.654;13.804;2023-02-01T05:57:35;47.67;;;24.27;;
28607;SDS011;15802;45.654;13.804;2023-02-01T06:00:01;44.80;;;23.15;;
28607;SDS011;15802;45.654;13.804;2023-02-01T06:02:28;49.05;;;24.27;;
28607;SDS011;15802;45.654;13.804;2023-02-01T06:04:54;50.05;;;23.90;;
28607;SDS011;15802;45.654;13.804;2023-02-01T06:07:19;48.95;;;24.33;;
28607;SDS011;15802;45.654;13.804;2023-02-01T06:09:45;45.40;;;23.13;;
28607;SDS011;15802;45.654;13.804;2023-02-01T06:12:11;42.30;;;22.33;;
28607;SDS011;15802;45.654;13.804;2023-02-01T06:14:37;53.00;;;25.42;;
28607;SDS011;15802;45.654;13.804;2023-02-01T06:17:03;47.92;;;24.80;;
28607;SDS011;15802;45.654;13.804;2023-02-01T06:19:30;48.75;;;24.75;;
28607;SDS011;15802;45.654;13.804;2023-02-01T06:21:56;52.28;;;26.80;;
28607;SDS011;15802;45.654;13.804;2023-02-01T06:24:22;48.45;;;24.40;;
28607;SDS011;15802;45.654;13.804;2023-02-01T06:26:47;47.75;;;24.33;;
28607;SDS011;15802;45.654;13.804;2023-02-01T06:29:13;46.58;;;24.13;;
28607;SDS011;15802;45.654;13.804;2023-02-01T06:31:39;45.47;;;23.73;;
28607;SDS011;15802;45.654;13.804;2023-02-01T06:34:05;46.45;;;24.25;;
28607;SDS011;15802;45.654;13.804;2023-02-01T06:36:31;48.60;;;25.85;;
28607;SDS011;15802;45.654;13.804;2023-02-01T06:38:57;49.35;;;24.88;;
28607;SDS011;15802;45.654;13.804;2023-02-01T06:41:24;47.15;;;24.38;;
28607;SDS011;15802;45.654;13.804;2023-02-01T06:43:50;54.58;;;25.48;;
28607;SDS011;15802;45.654;13.804;2023-02-01T06:46:16;48.75;;;26.33;;
28607;SDS011;15802;45.654;13.804;2023-02-01T06:48:42;52.28;;;26.10;;
28607;SDS011;15802;45.654;13.804;2023-02-01T06:51:25;55.40;;;27.38;;
28607;SDS011;15802;45.654;13.804;2023-02-01T06:53:52;47.03;;;24.73;;
28607;SDS011;15802;45.654;13.804;2023-02-01T06:56:18;61.05;;;29.10;;
28607;SDS011;15802;45.654;13.804;2023-02-01T06:58:44;56.33;;;27.83;;
28607;SDS011;15802;45.654;13.804;2023-02-01T07:01:11;54.13;;;26.58;;
28607;SDS011;15802;45.654;13.804;2023-02-01T07:03:37;57.63;;;28.48;;
28607;SDS011;15802;45.654;13.804;2023-02-01T07:06:03;49.55;;;26.48;;
28607;SDS011;15802;45.654;13.804;2023-02-01T07:08:30;50.10;;;25.58;;
28607;SDS011;15802;45.654;13.804;2023-02-01T07:11:00;50.03;;;26.67;;
28607;SDS011;15802;45.654;13.804;2023-02-01T07:13:28;47.23;;;24.70;;
28607;SDS011;15802;45.654;13.804;2023-02-01T07:15:57;48.40;;;25.08;;
28607;SDS011;15802;45.654;13.804;2023-02-01T07:18:24;46.03;;;25.13;;
28607;SDS011;15802;45.654;13.804;2023-02-01T07:20:51;49.17;;;24.13;;
28607;SDS011;15802;45.654;13.804;2023-02-01T07:23:16;48.42;;;25.10;;
28607;SDS011;15802;45.654;13.804;2023-02-01T07:25:43;49.45;;;26.65;;
28607;SDS011;15802;45.654;13.804;2023-02-01T07:28:09;45.13;;;23.50;;
28607;SDS011;15802;45.654;13.804;2023-02-01T07:30:34;51.20;;;25.60;;
28607;SDS011;15802;45.654;13.804;2023-02-01T07:33:00;40.53;;;22.00;;
28607;SDS011;15802;45.654;13.804;2023-02-01T07:35:27;44.95;;;23.15;;
28607;SDS011;15802;45.654;13.804;2023-02-01T07:37:53;49.78;;;25.73;;
28607;SDS011;15802;45.654;13.804;2023-02-01T07:40:19;47.55;;;25.08;;
28607;SDS011;15802;45.654;13.804;2023-02-01T07:42:50;46.45;;;24.42;;
28607;SDS011;15802;45.654;13.804;2023-02-01T07:45:16;49.83;;;25.13;;
28607;SDS011;15802;45.654;13.804;2023-02-01T07:47:41;50.15;;;24.35;;
28607;SDS011;15802;45.654;13.804;2023-02-01T07:50:07;37.85;;;20.25;;
28607;SDS011;15802;45.654;13.804;2023-02-01T07:52:34;39.60;;;21.08;;
28607;SDS011;15802;45.654;13.804;2023-02-01T07:54:59;42.28;;;22.20;;
28607;SDS011;15802;45.654;13.804;2023-02-01T07:57:25;72.15;;;35.58;;
28607;SDS011;15802;45.654;13.804;2023-02-01T07:59:52;41.35;;;22.98;;
28607;SDS011;15802;45.654;13.804;2023-02-01T08:02:36;38.45;;;21.08;;
28607;SDS011;15802;45.654;13.804;2023-02-01T08:05:01;34.53;;;19.73;;
28607;SDS011;15802;45.654;13.804;2023-02-01T08:07:27;35.70;;;19.58;;
28607;SDS011;15802;45.654;13.804;2023-02-01T08:09:53;36.50;;;20.42;;
28607;SDS011;15802;45.654;13.804;2023-02-01T08:12:19;37.75;;;18.90;;
28607;SDS011;15802;45.654;13.804;2023-02-01T08:14:45;34.70;;;18.52;;
28607;SDS011;15802;45.654;13.804;2023-02-01T08:17:11;35.00;;;19.05;;
28607;SDS011;15802;45.654;13.804;2023-02-01T08:19:36;38.50;;;20.45;;
28607;SDS011;15802;45.654;13.804;2023-02-01T08:22:02;37.33;;;20.27;;
28607;SDS011;15802;45.654;13.804;2023-02-01T08:24:32;33.25;;;20.00;;
28607;SDS011;15802;45.654;13.804;2023-02-01T08:27:00;40.25;;;21.50;;
28607;SDS011;15802;45.654;13.804;2023-02-01T08:29:26;40.78;;;21.42;;
28607;SDS011;15802;45.654;13.804;2023-02-01T08:31:52;39.00;;;22.05;;
28607;SDS011;15802;45.654;13.804;2023-02-01T08:34:19;51.90;;;28.13;;
28607;SDS011;15802;45.654;13.804;2023-02-01T08:36:45;52.30;;;26.73;;
28607;SDS011;15802;45.654;13.804;2023-02-01T08:39:11;41.33;;;23.85;;
28607;SDS011;15802;45.654;13.804;2023-02-01T08:41:37;42.08;;;22.88;;
28607;SDS011;15802;45.654;13.804;2023-02-01T08:44:05;35.13;;;21.20;;
28607;SDS011;15802;45.654;13.804;2023-02-01T08:46:31;38.88;;;22.27;;
28607;SDS011;15802;45.654;13.804;2023-02-01T08:48:57;42.35;;;21.83;;
28607;SDS011;15802;45.654;13.804;2023-02-01T08:51:23;37.47;;;21.52;;
28607;SDS011;15802;45.654;13.804;2023-02-01T08:53:52;33.33;;;20.35;;
28607;SDS011;15802;45.654;13.804;2023-02-01T08:56:18;36.35;;;20.85;;
28607;SDS011;15802;45.654;13.804;2023-02-01T08:58:44;36.22;;;20.23;;
28607;SDS011;15802;45.654;13.804;2023-02-01T09:01:12;38.15;;;21.27;;
28607;SDS011;15802;45.654;13.804;2023-02-01T09:03:39;34.53;;;20.27;;
28607;SDS011;15802;45.654;13.804;2023-02-01T09:06:07;37.28;;;20.23;;
28607;SDS011;15802;45.654;13.804;2023-02-01T09:08:34;40.08;;;20.88;;
28607;SDS011;15802;45.654;13.804;2023-02-01T09:11:02;37.00;;;20.92;;
28607;SDS011;15802;45.654;13.804;2023-02-01T09:13:31;39.35;;;21.70;;
28607;SDS011;15802;45.654;13.804;2023-02-01T09:15:59;38.38;;;21.48;;
28607;SDS011;15802;45.654;13.804;2023-02-01T09:18:25;33.83;;;19.80;;
28607;SDS011;15802;45.654;13.804;2023-02-01T09:20:51;39.38;;;20.52;;
28607;SDS011;15802;45.654;13.804;2023-02-01T09:23:17;37.25;;;20.10;;
28607;SDS011;15802;45.654;13.804;2023-02-01T09:25:45;32.50;;;19.05;;
28607;SDS011;15802;45.654;13.804;2023-02-01T09:28:15;38.70;;;21.58;;
28607;SDS011;15802;45.654;13.804;2023-02-01T09:30:41;34.33;;;20.88;;
28607;SDS011;15802;45.654;13.804;2023-02-01T09:33:07;34.65;;;19.88;;
28607;SDS011;15802;45.654;13.804;2023-02-01T09:35:32;32.95;;;19.45;;
28607;SDS011;15802;45.654;13.804;2023-02-01T09:37:58;34.97;;;19.40;;
28607;SDS011;15802;45.654;13.804;2023-02-01T09:40:24;31.90;;;18.58;;
28607;SDS011;15802;45.654;13.804;2023-02-01T09:42:55;34.10;;;21.08;;
28607;SDS011;15802;45.654;13.804;2023-02-01T09:48:29;32.88;;;18.85;;
28607;SDS011;15802;45.654;13.804;2023-02-01T09:50:58;35.85;;;20.88;;
28607;SDS011;15802;45.654;13.804;2023-02-01T09:53:29;34.15;;;20.20;;
28607;SDS011;15802;45.654;13.804;2023-02-01T09:56:02;34.20;;;20.75;;
28607;SDS011;15802;45.654;13.804;2023-02-01T09:58:33;37.15;;;20.73;;
28607;SDS011;15802;45.654;13.804;2023-02-01T10:03:32;32.63;;;18.85;;
28607;SDS011;15802;45.654;13.804;2023-02-01T10:09:10;33.28;;;18.13;;
28607;SDS011;15802;45.654;13.804;2023-02-01T10:12:11;35.33;;;20.15;;
28607;SDS011;15802;45.654;13.804;2023-02-01T10:18:28;31.27;;;19.38;;
28607;SDS011;15802;45.654;13.804;2023-02-01T10:21:25;35.72;;;21.20;;
28607;SDS011;15802;45.654;13.804;2023-02-01T10:24:11;30.75;;;19.30;;
28607;SDS011;15802;45.654;13.804;2023-02-01T10:29:47;40.17;;;20.95;;
28607;SDS011;15802;45.654;13.804;2023-02-01T10:32:23;35.40;;;21.50;;
28607;SDS011;15802;45.654;13.804;2023-02-01T10:34:59;34.45;;;19.25;;
28607;SDS011;15802;45.654;13.804;2023-02-01T10:37:28;35.85;;;20.92;;
28607;SDS011;15802;45.654;13.804;2023-02-01T10:39:57;33.95;;;20.38;;
28607;SDS011;15802;45.654;13.804;2023-02-01T10:42:27;29.80;;;19.00;;
28607;SDS011;15802;45.654;13.804;2023-02-01T10:44:56;37.80;;;21.25;;
28607;SDS011;15802;45.654;13.804;2023-02-01T10:47:27;31.92;;;19.50;;
28607;SDS011;15802;45.654;13.804;2023-02-01T10:50:15;31.23;;;19.25;;
28607;SDS011;15802;45.654;13.804;2023-02-01T10:52:48;37.95;;;21.65;;
28607;SDS011;15802;45.654;13.804;2023-02-01T10:55:38;39.55;;;22.95;;
28607;SDS011;15802;45.654;13.804;2023-02-01T10:58:10;39.30;;;23.40;;
28607;SDS011;15802;45.654;13.804;2023-02-01T11:00:44;40.17;;;23.55;;
28607;SDS011;15802;45.654;13.804;2023-02-01T11:03:32;39.17;;;23.92;;
28607;SDS011;15802;45.654;13.804;2023-02-01T11:06:04;41.92;;;24.17;;
28607;SDS011;15802;45.654;13.804;2023-02-01T11:08:54;39.85;;;23.65;;
28607;SDS011;15802;45.654;13.804;2023-02-01T11:11:22;44.35;;;25.02;;
28607;SDS011;15802;45.654;13.804;2023-02-01T11:13:53;38.88;;;23.95;;
28607;SDS011;15802;45.654;13.804;2023-02-01T11:16:22;44.08;;;26.35;;
28607;SDS011;15802;45.654;13.804;2023-02-01T11:18:58;47.92;;;26.20;;
28607;SDS011;15802;45.654;13.804;2023-02-01T11:21:24;43.67;;;25.52;;
28607;SDS011;15802;45.654;13.804;2023-02-01T11:23:50;48.03;;;27.52;;
28607;SDS011;15802;45.654;13.804;2023-02-01T11:26:21;44.83;;;26.55;;
28607;SDS011;15802;45.654;13.804;2023-02-01T11:28:52;46.58;;;27.08;;
28607;SDS011;15802;45.654;13.804;2023-02-01T11:31:22;52.30;;;28.45;;
28607;SDS011;15802;45.654;13.804;2023-02-01T11:33:51;48.60;;;29.23;;
28607;SDS011;15802;45.654;13.804;2023-02-01T11:36:21;48.08;;;28.88;;
28607;SDS011;15802;45.654;13.804;2023-02-01T11:38:53;51.58;;;31.35;;
28607;SDS011;15802;45.654;13.804;2023-02-01T11:41:34;56.28;;;31.92;;
28607;SDS011;15802;45.654;13.804;2023-02-01T11:44:19;57.45;;;33.90;;
28607;SDS011;15802;45.654;13.804;2023-02-01T11:47:23;57.50;;;33.57;;
28607;SDS011;15802;45.654;13.804;2023-02-01T11:49:56;66.85;;;36.83;;
28607;SDS011;15802;45.654;13.804;2023-02-01T11:52:39;60.22;;;36.08;;
28607;SDS011;15802;45.654;13.804;2023-02-01T11:58:22;62.33;;;35.67;;
28607;SDS011;15802;45.654;13.804;2023-02-01T12:01:12;67.68;;;38.85;;
28607;SDS011;15802;45.654;13.804;2023-02-01T12:07:12;70.68;;;39.17;;
28607;SDS011;15802;45.654;13.804;2023-02-01T12:09:56;68.53;;;39.05;;
28607;SDS011;15802;45.654;13.804;2023-02-01T12:15:45;73.18;;;42.00;;
28607;SDS011;15802;45.654;13.804;2023-02-01T12:18:36;74.70;;;42.53;;
28607;SDS011;15802;45.654;13.804;2023-02-01T12:21:42;69.38;;;40.75;;
28607;SDS011;15802;45.654;13.804;2023-02-01T12:24:31;75.50;;;43.80;;
28607;SDS011;15802;45.654;13.804;2023-02-01T12:33:19;75.53;;;42.88;;
28607;SDS011;15802;45.654;13.804;2023-02-01T12:36:00;75.63;;;43.45;;
28607;SDS011;15802;45.654;13.804;2023-02-01T12:38:43;74.38;;;44.08;;
28607;SDS011;15802;45.654;13.804;2023-02-01T12:44:12;72.25;;;44.45;;
28607;SDS011;15802;45.654;13.804;2023-02-01T12:46:50;78.03;;;45.33;;
28607;SDS011;15802;45.654;13.804;2023-02-01T12:49:42;71.93;;;42.90;;
28607;SDS011;15802;45.654;13.804;2023-02-01T12:52:15;78.75;;;45.53;;
28607;SDS011;15802;45.654;13.804;2023-02-01T12:55:24;76.35;;;44.08;;
28607;SDS011;15802;45.654;13.804;2023-02-01T12:57:50;75.30;;;43.38;;
28607;SDS011;15802;45.654;13.804;2023-02-01T13:00:36;79.93;;;45.60;;
28607;SDS011;15802;45.654;13.804;2023-02-01T13:03:12;81.72;;;45.00;;
28607;SDS011;15802;45.654;13.804;2023-02-01T13:06:03;76.60;;;44.83;;
28607;SDS011;15802;45.654;13.804;2023-02-01T13:11:24;58.88;;;33.60;;
28607;SDS011;15802;45.654;13.804;2023-02-01T13:14:17;82.70;;;44.90;;
28607;SDS011;15802;45.654;13.804;2023-02-01T13:17:04;79.40;;;46.72;;
28607;SDS011;15802;45.654;13.804;2023-02-01T13:22:28;80.32;;;46.42;;
28607;SDS011;15802;45.654;13.804;2023-02-01T13:24:58;82.70;;;49.42;;
28607;SDS011;15802;45.654;13.804;2023-02-01T13:27:27;84.88;;;49.33;;
28607;SDS011;15802;45.654;13.804;2023-02-01T13:29:58;87.97;;;50.10;;
28607;SDS011;15802;45.654;13.804;2023-02-01T13:41:31;90.97;;;54.00;;
28607;SDS011;15802;45.654;13.804;2023-02-01T13:44:09;93.28;;;53.13;;
28607;SDS011;15802;45.654;13.804;2023-02-01T13:46:41;93.50;;;54.90;;
28607;SDS011;15802;45.654;13.804;2023-02-01T13:49:26;93.50;;;53.55;;
28607;SDS011;15802;45.654;13.804;2023-02-01T13:51:56;94.60;;;55.08;;
28607;SDS011;15802;45.654;13.804;2023-02-01T13:54:25;95.65;;;57.50;;
28607;SDS011;15802;45.654;13.804;2023-02-01T13:56:54;97.10;;;56.20;;
28607;SDS011;15802;45.654;13.804;2023-02-01T13:59:49;96.50;;;57.70;;
28607;SDS011;15802;45.654;13.804;2023-02-01T14:05:11;97.18;;;57.58;;
28607;SDS011;15802;45.654;13.804;2023-02-01T14:11:31;97.22;;;57.15;;
28607;SDS011;15802;45.654;13.804;2023-02-01T14:14:06;103.13;;;60.25;;
28607;SDS011;15802;45.654;13.804;2023-02-01T14:20:08;105.72;;;61.95;;
28607;SDS011;15802;45.654;13.804;2023-02-01T14:23:01;104.13;;;60.78;;
28607;SDS011;15802;45.654;13.804;2023-02-01T14:25:35;107.10;;;62.95;;
28607;SDS011;15802;45.654;13.804;2023-02-01T14:28:01;106.80;;;63.42;;
28607;SDS011;15802;45.654;13.804;2023-02-01T14:30:47;117.13;;;66.85;;
28607;SDS011;15802;45.654;13.804;2023-02-01T14:33:22;111.05;;;66.53;;
28607;SDS011;15802;45.654;13.804;2023-02-01T14:35:55;115.07;;;67.95;;
28607;SDS011;15802;45.654;13.804;2023-02-01T14:38:28;106.70;;;64.03;;
28607;SDS011;15802;45.654;13.804;2023-02-01T14:41:23;111.35;;;65.13;;
28607;SDS011;15802;45.654;13.804;2023-02-01T14:49:47;113.45;;;69.10;;
28607;SDS011;15802;45.654;13.804;2023-02-01T14:52:37;132.73;;;83.85;;
28607;SDS011;15802;45.654;13.804;2023-02-01T14:55:13;142.07;;;85.90;;
28607;SDS011;15802;45.654;13.804;2023-02-01T14:57:44;133.02;;;84.30;;
28607;SDS011;15802;45.654;13.804;2023-02-01T15:00:17;135.13;;;86.82;;
28607;SDS011;15802;45.654;13.804;2023-02-01T15:02:46;136.53;;;85.57;;
28607;SDS011;15802;45.654;13.804;2023-02-01T15:05:31;135.82;;;85.60;;
28607;SDS011;15802;45.654;13.804;2023-02-01T15:08:03;134.45;;;83.68;;
28607;SDS011;15802;45.654;13.804;2023-02-01T15:10:40;130.95;;;81.32;;
28607;SDS011;15802;45.654;13.804;2023-02-01T15:13:18;133.32;;;81.97;;
28607;SDS011;15802;45.654;13.804;2023-02-01T15:16:07;126.85;;;82.00;;
28607;SDS011;15802;45.654;13.804;2023-02-01T15:18:36;129.07;;;79.68;;
28607;SDS011;15802;45.654;13.804;2023-02-01T15:21:03;133.25;;;82.32;;
28607;SDS011;15802;45.654;13.804;2023-02-01T15:23:30;134.15;;;84.95;;
28607;SDS011;15802;45.654;13.804;2023-02-01T15:25:57;131.02;;;83.13;;
28607;SDS011;15802;45.654;13.804;2023-02-01T15:28:24;143.73;;;86.18;;
28607;SDS011;15802;45.654;13.804;2023-02-01T15:30:59;136.90;;;83.95;;
28607;SDS011;15802;45.654;13.804;2023-02-01T15:33:28;133.18;;;83.57;;
28607;SDS011;15802;45.654;13.804;2023-02-01T15:35:55;137.13;;;85.72;;
28607;SDS011;15802;45.654;13.804;2023-02-01T15:38:36;130.38;;;83.18;;
28607;SDS011;15802;45.654;13.804;2023-02-01T15:41:09;130.98;;;85.75;;
28607;SDS011;15802;45.654;13.804;2023-02-01T15:43:39;136.10;;;85.65;;
28607;SDS011;15802;45.654;13.804;2023-02-01T15:46:16;136.10;;;84.65;;
28607;SDS011;15802;45.654;13.804;2023-02-01T15:49:01;135.38;;;84.95;;
28607;SDS011;15802;45.654;13.804;2023-02-01T15:51:29;144.45;;;90.53;;
28607;SDS011;15802;45.654;13.804;2023-02-01T15:53:58;148.93;;;93.30;;